Terminal Aerodrome Forecast
Issued by NWS

Home | Current Version | Previous Version | Text Only | Print | Product List | Glossary On
Versions: 1 2 3 4 5 6 7 8 9 10 11 12 13
000
FTUS46 KPDT 280500
TAFRDM
TAF
KRDM 280540Z 2806/2906 29013G21KT P6SM VCSH SCT100
     FM280900 30014KT P6SM SCT060
     FM281200 28009KT P6SM SKC
     FM282000 32010KT P6SM SCT250
     FM290300 32004KT P6SM SKC=

USA.gov is the U.S. government's official web portal to all federal, state and local government web resources and services.